sensor_id;sensor_type;location;lat;lon;timestamp;temperature;humidity
68378;DHT22;55322;48.146;11.516;2023-02-28T00:02:09;-2.56;76.72
68378;DHT22;55322;48.146;11.516;2023-02-28T00:04:35;-2.60;78.06
68378;DHT22;55322;48.146;11.516;2023-02-28T00:07:00;-2.60;77.09
68378;DHT22;55322;48.146;11.516;2023-02-28T00:09:25;-2.62;77.07
68378;DHT22;55322;48.146;11.516;2023-02-28T00:11:51;-2.63;77.16
68378;DHT22;55322;48.146;11.516;2023-02-28T00:14:16;-2.69;77.59
68378;DHT22;55322;48.146;11.516;2023-02-28T00:16:41;-2.67;77.73
68378;DHT22;55322;48.146;11.516;2023-02-28T00:19:06;-2.67;77.63
68378;DHT22;55322;48.146;11.516;2023-02-28T00:21:32;-2.69;77.41
68378;DHT22;55322;48.146;11.516;2023-02-28T00:23:57;-2.75;78.52
68378;DHT22;55322;48.146;11.516;2023-02-28T00:26:22;-2.77;78.36
68378;DHT22;55322;48.146;11.516;2023-02-28T00:28:48;-2.76;78.30
68378;DHT22;55322;48.146;11.516;2023-02-28T00:31:13;-2.86;79.59
68378;DHT22;55322;48.146;11.516;2023-02-28T00:33:39;-2.73;77.90
68378;DHT22;55322;48.146;11.516;2023-02-28T00:36:10;-2.77;77.85
68378;DHT22;55322;48.146;11.516;2023-02-28T00:38:36;-2.75;77.70
68378;DHT22;55322;48.146;11.516;2023-02-28T00:41:01;-2.79;78.09
68378;DHT22;55322;48.146;11.516;2023-02-28T00:43:30;-2.81;78.89
68378;DHT22;55322;48.146;11.516;2023-02-28T00:45:55;-2.87;78.98
68378;DHT22;55322;48.146;11.516;2023-02-28T00:48:21;-2.87;78.82
68378;DHT22;55322;48.146;11.516;2023-02-28T00:50:48;-2.84;78.56
68378;DHT22;55322;48.146;11.516;2023-02-28T00:53:14;-2.87;78.74
68378;DHT22;55322;48.146;11.516;2023-02-28T00:55:39;-2.94;79.76
68378;DHT22;55322;48.146;11.516;2023-02-28T00:58:05;-2.94;78.77
68378;DHT22;55322;48.146;11.516;2023-02-28T01:00:30;-2.96;79.50
68378;DHT22;55322;48.146;11.516;2023-02-28T01:02:56;-3.03;80.04
68378;DHT22;55322;48.146;11.516;2023-02-28T01:05:21;-2.91;78.91
68378;DHT22;55322;48.146;11.516;2023-02-28T01:07:46;-2.93;78.90
68378;DHT22;55322;48.146;11.516;2023-02-28T01:10:12;-3.00;79.56
68378;DHT22;55322;48.146;11.516;2023-02-28T01:12:37;-2.93;79.39
68378;DHT22;55322;48.146;11.516;2023-02-28T01:15:03;-3.01;79.90
68378;DHT22;55322;48.146;11.516;2023-02-28T01:17:28;-2.93;78.93
68378;DHT22;55322;48.146;11.516;2023-02-28T01:19:54;-3.05;79.80
68378;DHT22;55322;48.146;11.516;2023-02-28T01:22:20;-3.08;79.58
68378;DHT22;55322;48.146;11.516;2023-02-28T01:24:46;-3.11;79.62
68378;DHT22;55322;48.146;11.516;2023-02-28T01:27:11;-3.12;79.94
68378;DHT22;55322;48.146;11.516;2023-02-28T01:29:36;-3.10;79.83
68378;DHT22;55322;48.146;11.516;2023-02-28T01:32:02;-3.12;81.35
68378;DHT22;55322;48.146;11.516;2023-02-28T01:34:27;-3.17;80.44
68378;DHT22;55322;48.146;11.516;2023-02-28T01:36:52;-3.14;80.09
68378;DHT22;55322;48.146;11.516;2023-02-28T01:39:18;-3.18;80.16
68378;DHT22;55322;48.146;11.516;2023-02-28T01:41:44;-3.28;81.09
68378;DHT22;55322;48.146;11.516;2023-02-28T01:47:12;-3.27;80.77
68378;DHT22;55322;48.146;11.516;2023-02-28T01:49:38;-3.27;80.64
68378;DHT22;55322;48.146;11.516;2023-02-28T01:52:04;-3.28;80.79
68378;DHT22;55322;48.146;11.516;2023-02-28T01:54:31;-3.32;80.85
68378;DHT22;55322;48.146;11.516;2023-02-28T01:57:10;-3.34;81.25
68378;DHT22;55322;48.146;11.516;2023-02-28T02:02:12;-3.34;81.42
68378;DHT22;55322;48.146;11.516;2023-02-28T02:04:59;-3.37;81.99
68378;DHT22;55322;48.146;11.516;2023-02-28T02:07:29;-3.38;81.66
68378;DHT22;55322;48.146;11.516;2023-02-28T02:18:27;-3.35;80.80
68378;DHT22;55322;48.146;11.516;2023-02-28T02:29:45;-3.45;81.52
68378;DHT22;55322;48.146;11.516;2023-02-28T02:35:28;-3.42;81.91
68378;DHT22;55322;48.146;11.516;2023-02-28T02:38:01;-3.47;81.97
68378;DHT22;55322;48.146;11.516;2023-02-28T02:40:35;-3.48;82.07
68378;DHT22;55322;48.146;11.516;2023-02-28T02:48:13;-3.42;82.22
68378;DHT22;55322;48.146;11.516;2023-02-28T02:50:48;-3.47;82.29
68378;DHT22;55322;48.146;11.516;2023-02-28T02:53:17;-3.41;82.47
68378;DHT22;55322;48.146;11.516;2023-02-28T02:55:46;-3.47;82.53
68378;DHT22;55322;48.146;11.516;2023-02-28T02:58:15;-3.55;82.75
68378;DHT22;55322;48.146;11.516;2023-02-28T03:00:52;-3.48;82.32
68378;DHT22;55322;48.146;11.516;2023-02-28T03:03:19;-3.47;82.37
68378;DHT22;55322;48.146;11.516;2023-02-28T03:05:55;-3.45;82.35
68378;DHT22;55322;48.146;11.516;2023-02-28T03:08:20;-3.48;82.80
68378;DHT22;55322;48.146;11.516;2023-02-28T03:10:48;-3.45;83.07
68378;DHT22;55322;48.146;11.516;2023-02-28T03:13:42;-3.48;83.18
68378;DHT22;55322;48.146;11.516;2023-02-28T03:19:22;-3.50;83.36
68378;DHT22;55322;48.146;11.516;2023-02-28T03:27:02;-3.54;83.83
68378;DHT22;55322;48.146;11.516;2023-02-28T03:29:35;-3.51;83.79
68378;DHT22;55322;48.146;11.516;2023-02-28T03:32:08;-3.55;83.99
68378;DHT22;55322;48.146;11.516;2023-02-28T03:34:45;-3.52;84.75
68378;DHT22;55322;48.146;11.516;2023-02-28T03:37:16;-3.55;84.41
68378;DHT22;55322;48.146;11.516;2023-02-28T03:39:46;-3.48;84.16
68378;DHT22;55322;48.146;11.516;2023-02-28T03:42:19;-3.54;84.04
68378;DHT22;55322;48.146;11.516;2023-02-28T03:44:51;-3.55;84.42
68378;DHT22;55322;48.146;11.516;2023-02-28T03:47:29;-3.52;84.58
68378;DHT22;55322;48.146;11.516;2023-02-28T03:49:58;-3.51;84.56
68378;DHT22;55322;48.146;11.516;2023-02-28T03:52:27;-3.40;84.33
68378;DHT22;55322;48.146;11.516;2023-02-28T03:55:00;-3.44;84.31
68378;DHT22;55322;48.146;11.516;2023-02-28T04:02:42;-3.45;84.91
68378;DHT22;55322;48.146;11.516;2023-02-28T04:05:07;-3.47;85.17
68378;DHT22;55322;48.146;11.516;2023-02-28T04:07:33;-3.45;85.46
68378;DHT22;55322;48.146;11.516;2023-02-28T04:09:58;-3.44;84.99
68378;DHT22;55322;48.146;11.516;2023-02-28T04:12:24;-3.41;84.98
68378;DHT22;55322;48.146;11.516;2023-02-28T04:14:50;-3.48;85.29
68378;DHT22;55322;48.146;11.516;2023-02-28T04:17:15;-3.48;85.76
68378;DHT22;55322;48.146;11.516;2023-02-28T04:19:41;-3.41;85.84
68378;DHT22;55322;48.146;11.516;2023-02-28T04:22:08;-3.42;86.10
68378;DHT22;55322;48.146;11.516;2023-02-28T04:24:33;-3.45;86.40
68378;DHT22;55322;48.146;11.516;2023-02-28T04:26:59;-3.35;86.53
68378;DHT22;55322;48.146;11.516;2023-02-28T04:29:30;-3.37;85.56
68378;DHT22;55322;48.146;11.516;2023-02-28T04:31:58;-3.37;85.92
68378;DHT22;55322;48.146;11.516;2023-02-28T04:34:26;-3.30;86.30
68378;DHT22;55322;48.146;11.516;2023-02-28T04:36:52;-3.32;85.98
68378;DHT22;55322;48.146;11.516;2023-02-28T04:39:20;-3.30;85.19
68378;DHT22;55322;48.146;11.516;2023-02-28T04:41:45;-3.24;85.15
68378;DHT22;55322;48.146;11.516;2023-02-28T04:44:11;-3.22;85.87
68378;DHT22;55322;48.146;11.516;2023-02-28T04:46:37;-3.25;85.91
68378;DHT22;55322;48.146;11.516;2023-02-28T04:49:02;-3.17;85.20
68378;DHT22;55322;48.146;11.516;2023-02-28T04:51:28;-3.15;85.29
68378;DHT22;55322;48.146;11.516;2023-02-28T04:53:53;-3.11;85.26
68378;DHT22;55322;48.146;11.516;2023-02-28T04:56:19;-3.15;85.39
68378;DHT22;55322;48.146;11.516;2023-02-28T04:58:45;-3.07;84.96
68378;DHT22;55322;48.146;11.516;2023-02-28T05:03:43;-3.08;84.84
68378;DHT22;55322;48.146;11.516;2023-02-28T05:06:10;-3.05;85.73
68378;DHT22;55322;48.146;11.516;2023-02-28T05:08:36;-2.96;85.01
68378;DHT22;55322;48.146;11.516;2023-02-28T05:11:03;-2.96;84.51
68378;DHT22;55322;48.146;11.516;2023-02-28T05:13:28;-2.94;84.87
68378;DHT22;55322;48.146;11.516;2023-02-28T05:15:55;-2.91;84.39
68378;DHT22;55322;48.146;11.516;2023-02-28T05:18:20;-2.93;84.79
68378;DHT22;55322;48.146;11.516;2023-02-28T05:20:45;-2.93;84.19
68378;DHT22;55322;48.146;11.516;2023-02-28T05:23:11;-2.94;84.21
68378;DHT22;55322;48.146;11.516;2023-02-28T05:25:38;-2.90;84.24
68378;DHT22;55322;48.146;11.516;2023-02-28T05:28:04;-2.90;84.42
68378;DHT22;55322;48.146;11.516;2023-02-28T05:30:29;-2.87;84.24
68378;DHT22;55322;48.146;11.516;2023-02-28T05:32:57;-2.90;84.75
68378;DHT22;55322;48.146;11.516;2023-02-28T05:35:23;-2.84;84.43
68378;DHT22;55322;48.146;11.516;2023-02-28T05:37:49;-2.84;83.57
68378;DHT22;55322;48.146;11.516;2023-02-28T05:40:14;-2.80;84.41
68378;DHT22;55322;48.146;11.516;2023-02-28T05:42:40;-2.76;83.74
68378;DHT22;55322;48.146;11.516;2023-02-28T05:45:07;-2.69;83.52
68378;DHT22;55322;48.146;11.516;2023-02-28T05:47:32;-2.75;83.58
68378;DHT22;55322;48.146;11.516;2023-02-28T05:49:58;-2.76;84.49
68378;DHT22;55322;48.146;11.516;2023-02-28T05:52:23;-2.70;84.03
68378;DHT22;55322;48.146;11.516;2023-02-28T05:54:48;-2.76;83.15
68378;DHT22;55322;48.146;11.516;2023-02-28T05:57:14;-2.80;83.18
68378;DHT22;55322;48.146;11.516;2023-02-28T05:59:39;-2.73;82.96
68378;DHT22;55322;48.146;11.516;2023-02-28T06:02:11;-2.72;83.35
68378;DHT22;55322;48.146;11.516;2023-02-28T06:04:37;-2.69;83.96
68378;DHT22;55322;48.146;11.516;2023-02-28T06:07:02;-2.67;83.75
68378;DHT22;55322;48.146;11.516;2023-02-28T06:09:28;-2.72;82.95
68378;DHT22;55322;48.146;11.516;2023-02-28T06:11:54;-2.65;82.88
68378;DHT22;55322;48.146;11.516;2023-02-28T06:14:20;-2.57;82.54
68378;DHT22;55322;48.146;11.516;2023-02-28T06:16:46;-2.66;83.14
68378;DHT22;55322;48.146;11.516;2023-02-28T06:19:11;-2.69;82.00
68378;DHT22;55322;48.146;11.516;2023-02-28T06:21:37;-2.70;82.12
68378;DHT22;55322;48.146;11.516;2023-02-28T06:24:03;-2.67;81.95
68378;DHT22;55322;48.146;11.516;2023-02-28T06:26:29;-2.63;81.91
68378;DHT22;55322;48.146;11.516;2023-02-28T06:28:54;-2.67;81.06
68378;DHT22;55322;48.146;11.516;2023-02-28T06:31:20;-2.66;81.45
68378;DHT22;55322;48.146;11.516;2023-02-28T06:33:46;-2.76;81.91
68378;DHT22;55322;48.146;11.516;2023-02-28T06:36:13;-2.69;81.70
68378;DHT22;55322;48.146;11.516;2023-02-28T06:38:39;-2.73;81.96
68378;DHT22;55322;48.146;11.516;2023-02-28T06:41:06;-2.66;82.40
68378;DHT22;55322;48.146;11.516;2023-02-28T06:43:36;-2.60;82.39
68378;DHT22;55322;48.146;11.516;2023-02-28T06:46:04;-2.63;82.22
68378;DHT22;55322;48.146;11.516;2023-02-28T06:48:30;-2.56;82.09
68378;DHT22;55322;48.146;11.516;2023-02-28T06:51:03;-2.63;81.80
68378;DHT22;55322;48.146;11.516;2023-02-28T06:53:29;-2.59;81.75
68378;DHT22;55322;48.146;11.516;2023-02-28T06:55:54;-2.60;81.35
68378;DHT22;55322;48.146;11.516;2023-02-28T06:58:19;-2.65;81.36
68378;DHT22;55322;48.146;11.516;2023-02-28T07:00:45;-2.66;81.71
68378;DHT22;55322;48.146;11.516;2023-02-28T07:03:12;-2.67;81.52
68378;DHT22;55322;48.146;11.516;2023-02-28T07:05:38;-2.72;81.41
68378;DHT22;55322;48.146;11.516;2023-02-28T07:08:05;-2.70;81.97
68378;DHT22;55322;48.146;11.516;2023-02-28T07:10:31;-2.67;81.93
68378;DHT22;55322;48.146;11.516;2023-02-28T07:12:57;-2.60;82.16
68378;DHT22;55322;48.146;11.516;2023-02-28T07:15:23;-2.56;82.09
68378;DHT22;55322;48.146;11.516;2023-02-28T07:17:48;-2.55;81.75
68378;DHT22;55322;48.146;11.516;2023-02-28T07:20:13;-2.57;81.97
68378;DHT22;55322;48.146;11.516;2023-02-28T07:22:39;-2.57;82.42
68378;DHT22;55322;48.146;11.516;2023-02-28T07:25:05;-2.57;81.55
68378;DHT22;55322;48.146;11.516;2023-02-28T07:27:30;-2.53;82.12
68378;DHT22;55322;48.146;11.516;2023-02-28T07:29:56;-2.50;82.19
68378;DHT22;55322;48.146;11.516;2023-02-28T07:32:21;-2.53;81.46
68378;DHT22;55322;48.146;11.516;2023-02-28T07:34:47;-2.52;81.33
68378;DHT22;55322;48.146;11.516;2023-02-28T07:37:13;-2.50;81.26
68378;DHT22;55322;48.146;11.516;2023-02-28T07:39:39;-2.55;81.40
68378;DHT22;55322;48.146;11.516;2023-02-28T07:42:08;-2.43;81.28
68378;DHT22;55322;48.146;11.516;2023-02-28T07:44:37;-2.49;81.17
68378;DHT22;55322;48.146;11.516;2023-02-28T07:47:09;-2.49;81.50
68378;DHT22;55322;48.146;11.516;2023-02-28T07:49:35;-2.56;81.18
68378;DHT22;55322;48.146;11.516;2023-02-28T07:52:02;-2.41;81.82
68378;DHT22;55322;48.146;11.516;2023-02-28T07:54:28;-2.48;80.96
68378;DHT22;55322;48.146;11.516;2023-02-28T07:56:54;-2.53;81.02
68378;DHT22;55322;48.146;11.516;2023-02-28T07:59:19;-2.49;81.11
68378;DHT22;55322;48.146;11.516;2023-02-28T08:01:44;-2.50;81.04
68378;DHT22;55322;48.146;11.516;2023-02-28T08:04:10;-2.43;80.90
68378;DHT22;55322;48.146;11.516;2023-02-28T08:06:35;-2.31;82.25
68378;DHT22;55322;48.146;11.516;2023-02-28T08:09:00;-2.32;81.21
68378;DHT22;55322;48.146;11.516;2023-02-28T08:11:26;-2.38;80.88
68378;DHT22;55322;48.146;11.516;2023-02-28T08:13:51;-2.38;81.39
68378;DHT22;55322;48.146;11.516;2023-02-28T08:16:17;-2.32;82.29
68378;DHT22;55322;48.146;11.516;2023-02-28T08:18:47;-2.28;81.10
68378;DHT22;55322;48.146;11.516;2023-02-28T08:21:12;-2.26;80.57
68378;DHT22;55322;48.146;11.516;2023-02-28T08:23:38;-2.41;80.57
68378;DHT22;55322;48.146;11.516;2023-02-28T08:26:04;-2.35;81.34
68378;DHT22;55322;48.146;11.516;2023-02-28T08:28:29;-2.32;81.10
68378;DHT22;55322;48.146;11.516;2023-02-28T08:30:55;-2.35;81.23
68378;DHT22;55322;48.146;11.516;2023-02-28T08:33:20;-2.31;81.82
68378;DHT22;55322;48.146;11.516;2023-02-28T08:35:45;-2.33;81.60
68378;DHT22;55322;48.146;11.516;2023-02-28T08:38:11;-2.21;81.96
68378;DHT22;55322;48.146;11.516;2023-02-28T08:40:36;-2.19;80.84
68378;DHT22;55322;48.146;11.516;2023-02-28T08:43:01;-2.25;80.65
68378;DHT22;55322;48.146;11.516;2023-02-28T08:45:27;-2.19;81.20
68378;DHT22;55322;48.146;11.516;2023-02-28T08:47:54;-2.13;80.80
68378;DHT22;55322;48.146;11.516;2023-02-28T08:50:20;-2.03;81.57
68378;DHT22;55322;48.146;11.516;2023-02-28T08:52:45;-2.21;80.17
68378;DHT22;55322;48.146;11.516;2023-02-28T08:55:11;-2.15;81.80
68378;DHT22;55322;48.146;11.516;2023-02-28T08:57:36;-2.11;80.07
68378;DHT22;55322;48.146;11.516;2023-02-28T09:00:03;-1.97;81.68
68378;DHT22;55322;48.146;11.516;2023-02-28T09:02:30;-1.94;81.06
68378;DHT22;55322;48.146;11.516;2023-02-28T09:04:57;-1.95;79.52
68378;DHT22;55322;48.146;11.516;2023-02-28T09:07:23;-1.81;81.01
68378;DHT22;55322;48.146;11.516;2023-02-28T09:09:48;-1.88;79.50
68378;DHT22;55322;48.146;11.516;2023-02-28T09:12:24;-1.88;79.46
68378;DHT22;55322;48.146;11.516;2023-02-28T09:14:50;-1.91;79.40
68378;DHT22;55322;48.146;11.516;2023-02-28T09:17:15;-1.84;79.44
68378;DHT22;55322;48.146;11.516;2023-02-28T09:19:41;-1.95;79.04
68378;DHT22;55322;48.146;11.516;2023-02-28T09:22:07;-1.99;78.82
68378;DHT22;55322;48.146;11.516;2023-02-28T09:24:33;-2.16;79.12
68378;DHT22;55322;48.146;11.516;2023-02-28T09:26:58;-2.05;79.15
68378;DHT22;55322;48.146;11.516;2023-02-28T09:29:23;-1.92;79.24
68378;DHT22;55322;48.146;11.516;2023-02-28T09:31:49;-1.88;78.64
68378;DHT22;55322;48.146;11.516;2023-02-28T09:34:15;-1.95;78.47
68378;DHT22;55322;48.146;11.516;2023-02-28T09:36:42;-1.91;78.85
68378;DHT22;55322;48.146;11.516;2023-02-28T09:39:08;-1.74;78.59
68378;DHT22;55322;48.146;11.516;2023-02-28T09:41:53;-1.64;77.78
68378;DHT22;55322;48.146;11.516;2023-02-28T09:46:56;-1.72;78.13
68378;DHT22;55322;48.146;11.516;2023-02-28T09:49:28;-1.75;77.71
68378;DHT22;55322;48.146;11.516;2023-02-28T09:52:07;-1.87;77.86
68378;DHT22;55322;48.146;11.516;2023-02-28T09:54:35;-1.81;78.09
68378;DHT22;55322;48.146;11.516;2023-02-28T09:57:16;-1.72;77.61
68378;DHT22;55322;48.146;11.516;2023-02-28T09:59:52;-1.64;77.27
68378;DHT22;55322;48.146;11.516;2023-02-28T10:06:05;-1.66;77.57
68378;DHT22;55322;48.146;11.516;2023-02-28T10:11:19;-0.88;76.76
68378;DHT22;55322;48.146;11.516;2023-02-28T10:13:52;-0.69;74.94
68378;DHT22;55322;48.146;11.516;2023-02-28T10:16:25;-0.81;75.34
68378;DHT22;55322;48.146;11.516;2023-02-28T10:18:57;-0.75;75.18
68378;DHT22;55322;48.146;11.516;2023-02-28T10:21:31;-0.54;74.76
68378;DHT22;55322;48.146;11.516;2023-02-28T10:24:03;-0.41;73.48
68378;DHT22;55322;48.146;11.516;2023-02-28T10:26:32;-0.41;74.32
68378;DHT22;55322;48.146;11.516;2023-02-28T10:28:58;-0.57;76.23
68378;DHT22;55322;48.146;11.516;2023-02-28T10:31:23;-0.54;74.65
68378;DHT22;55322;48.146;11.516;2023-02-28T10:33:49;-0.57;74.15
68378;DHT22;55322;48.146;11.516;2023-02-28T10:36:16;-0.57;73.83
68378;DHT22;55322;48.146;11.516;2023-02-28T10:38:43;-0.07;74.03
68378;DHT22;55322;48.146;11.516;2023-02-28T10:41:30;0.03;72.35
68378;DHT22;55322;48.146;11.516;2023-02-28T10:44:21;0.48;70.93
68378;DHT22;55322;48.146;11.516;2023-02-28T10:46:48;0.88;69.83
68378;DHT22;55322;48.146;11.516;2023-02-28T10:49:17;1.18;69.54
68378;DHT22;55322;48.146;11.516;2023-02-28T10:51:45;0.45;69.40
68378;DHT22;55322;48.146;11.516;2023-02-28T10:54:24;0.28;69.80
68378;DHT22;55322;48.146;11.516;2023-02-28T10:57:21;0.84;69.21
68378;DHT22;55322;48.146;11.516;2023-02-28T10:59:50;0.67;68.85
68378;DHT22;55322;48.146;11.516;2023-02-28T11:04:54;0.36;69.98
68378;DHT22;55322;48.146;11.516;2023-02-28T11:07:22;0.37;72.43
68378;DHT22;55322;48.146;11.516;2023-02-28T11:09:52;0.40;71.96
68378;DHT22;55322;48.146;11.516;2023-02-28T11:12:25;0.47;70.32
68378;DHT22;55322;48.146;11.516;2023-02-28T11:17:54;0.21;72.29
68378;DHT22;55322;48.146;11.516;2023-02-28T11:20:24;0.45;71.24
68378;DHT22;55322;48.146;11.516;2023-02-28T11:22:50;0.82;70.69
68378;DHT22;55322;48.146;11.516;2023-02-28T11:25:23;0.68;69.16
68378;DHT22;55322;48.146;11.516;2023-02-28T11:27:51;1.00;69.36
68378;DHT22;55322;48.146;11.516;2023-02-28T11:30:38;1.43;69.77
68378;DHT22;55322;48.146;11.516;2023-02-28T11:33:42;1.30;67.82
68378;DHT22;55322;48.146;11.516;2023-02-28T11:36:16;0.81;68.39
68378;DHT22;55322;48.146;11.516;2023-02-28T11:38:43;0.87;69.54
68378;DHT22;55322;48.146;11.516;2023-02-28T11:52:10;1.75;67.43
68378;DHT22;55322;48.146;11.516;2023-02-28T12:06:21;2.38;63.82
68378;DHT22;55322;48.146;11.516;2023-02-28T12:17:03;1.56;66.04
68378;DHT22;55322;48.146;11.516;2023-02-28T12:23:10;1.63;66.71
68378;DHT22;55322;48.146;11.516;2023-02-28T12:28:34;1.54;66.85
68378;DHT22;55322;48.146;11.516;2023-02-28T12:31:06;1.81;67.14
68378;DHT22;55322;48.146;11.516;2023-02-28T12:33:42;2.15;67.63
68378;DHT22;55322;48.146;11.516;2023-02-28T12:36:15;2.85;66.69
68378;DHT22;55322;48.146;11.516;2023-02-28T12:41:41;2.25;65.19
68378;DHT22;55322;48.146;11.516;2023-02-28T12:44:18;2.13;67.15
68378;DHT22;55322;48.146;11.516;2023-02-28T12:46:48;2.21;66.16
68378;DHT22;55322;48.146;11.516;2023-02-28T12:49:23;2.24;66.87
68378;DHT22;55322;48.146;11.516;2023-02-28T12:51:51;2.27;65.99
68378;DHT22;55322;48.146;11.516;2023-02-28T12:57:00;1.70;65.97
68378;DHT22;55322;48.146;11.516;2023-02-28T13:02:31;2.25;66.49
68378;DHT22;55322;48.146;11.516;2023-02-28T13:05:50;2.38;65.13
68378;DHT22;55322;48.146;11.516;2023-02-28T13:10:45;2.46;65.20
68378;DHT22;55322;48.146;11.516;2023-02-28T13:13:16;2.56;63.89
68378;DHT22;55322;48.146;11.516;2023-02-28T13:16:00;2.10;65.06
68378;DHT22;55322;48.146;11.516;2023-02-28T13:20:57;1.87;65.11
68378;DHT22;55322;48.146;11.516;2023-02-28T13:26:03;1.80;65.54
68378;DHT22;55322;48.146;11.516;2023-02-28T13:31:15;1.90;66.00
68378;DHT22;55322;48.146;11.516;2023-02-28T13:36:23;1.97;65.72
68378;DHT22;55322;48.146;11.516;2023-02-28T13:38:53;2.11;66.05
68378;DHT22;55322;48.146;11.516;2023-02-28T13:41:40;2.20;65.42
68378;DHT22;55322;48.146;11.516;2023-02-28T13:49:33;2.07;67.89
68378;DHT22;55322;48.146;11.516;2023-02-28T14:02:53;2.32;65.93
68378;DHT22;55322;48.146;11.516;2023-02-28T14:05:32;2.27;66.20
68378;DHT22;55322;48.146;11.516;2023-02-28T14:08:03;2.29;67.49
68378;DHT22;55322;48.146;11.516;2023-02-28T14:10:32;2.31;65.40
68378;DHT22;55322;48.146;11.516;2023-02-28T14:13:02;2.28;65.22
68378;DHT22;55322;48.146;11.516;2023-02-28T14:18:21;2.13;65.50
68378;DHT22;55322;48.146;11.516;2023-02-28T14:20:49;2.10;68.85
68378;DHT22;55322;48.146;11.516;2023-02-28T14:31:09;2.13;67.87
68378;DHT22;55322;48.146;11.516;2023-02-28T14:33:48;2.04;65.69
68378;DHT22;55322;48.146;11.516;2023-02-28T14:36:26;2.08;66.16
68378;DHT22;55322;48.146;11.516;2023-02-28T14:38:59;2.18;68.18
68378;DHT22;55322;48.146;11.516;2023-02-28T14:41:39;2.21;65.81
68378;DHT22;55322;48.146;11.516;2023-02-28T14:44:21;2.22;66.29
68378;DHT22;55322;48.146;11.516;2023-02-28T14:46:50;2.20;66.47
68378;DHT22;55322;48.146;11.516;2023-02-28T14:49:37;2.18;67.53
68378;DHT22;55322;48.146;11.516;2023-02-28T14:52:09;2.21;65.74
68378;DHT22;55322;48.146;11.516;2023-02-28T14:54:38;2.22;67.63
68378;DHT22;55322;48.146;11.516;2023-02-28T14:57:03;2.11;65.88
68378;DHT22;55322;48.146;11.516;2023-02-28T14:59:34;2.13;65.53
68378;DHT22;55322;48.146;11.516;2023-02-28T15:02:34;2.11;65.09
68378;DHT22;55322;48.146;11.516;2023-02-28T15:05:10;2.10;66.69
68378;DHT22;55322;48.146;11.516;2023-02-28T15:07:48;2.20;64.93
68378;DHT22;55322;48.146;11.516;2023-02-28T15:12:49;2.28;66.87
68378;DHT22;55322;48.146;11.516;2023-02-28T15:15:17;2.28;65.06
68378;DHT22;55322;48.146;11.516;2023-02-28T15:17:48;2.35;67.11
68378;DHT22;55322;48.146;11.516;2023-02-28T15:20:16;2.32;64.49
68378;DHT22;55322;48.146;11.516;2023-02-28T15:23:01;2.34;65.01
68378;DHT22;55322;48.146;11.516;2023-02-28T15:25:27;2.32;65.16
68378;DHT22;55322;48.146;11.516;2023-02-28T15:27:55;2.34;66.59
68378;DHT22;55322;48.146;11.516;2023-02-28T15:30:28;2.22;65.50
68378;DHT22;55322;48.146;11.516;2023-02-28T15:35:41;2.27;66.77
68378;DHT22;55322;48.146;11.516;2023-02-28T15:38:24;2.28;67.88
68378;DHT22;55322;48.146;11.516;2023-02-28T15:43:32;2.22;66.23
68378;DHT22;55322;48.146;11.516;2023-02-28T15:46:06;2.22;67.20
68378;DHT22;55322;48.146;11.516;2023-02-28T15:48:52;2.20;68.36
68378;DHT22;55322;48.146;11.516;2023-02-28T15:51:20;2.20;68.05
68378;DHT22;55322;48.146;11.516;2023-02-28T15:53:58;2.25;67.45
68378;DHT22;55322;48.146;11.516;2023-02-28T15:56:37;2.18;68.69
68378;DHT22;55322;48.146;11.516;2023-02-28T15:59:12;2.10;68.56
68378;DHT22;55322;48.146;11.516;2023-02-28T16:01:39;2.14;68.02
68378;DHT22;55322;48.146;11.516;2023-02-28T16:04:16;2.15;68.39
68378;DHT22;55322;48.146;11.516;2023-02-28T16:09:23;2.18;68.51
68378;DHT22;55322;48.146;11.516;2023-02-28T16:11:50;2.14;68.06
68378;DHT22;55322;48.146;11.516;2023-02-28T16:14:19;2.14;69.14
68378;DHT22;55322;48.146;11.516;2023-02-28T16:16:47;2.04;68.25
68378;DHT22;55322;48.146;11.516;2023-02-28T16:19:13;2.08;67.88
68378;DHT22;55322;48.146;11.516;2023-02-28T16:21:38;2.11;69.03
68378;DHT22;55322;48.146;11.516;2023-02-28T16:24:04;2.08;67.98
68378;DHT22;55322;48.146;11.516;2023-02-28T16:26:30;1.98;69.02
68378;DHT22;55322;48.146;11.516;2023-02-28T16:28:55;1.87;69.37
68378;DHT22;55322;48.146;11.516;2023-02-28T16:31:21;1.81;70.42
68378;DHT22;55322;48.146;11.516;2023-02-28T16:33:46;1.87;68.50
68378;DHT22;55322;48.146;11.516;2023-02-28T16:36:21;1.78;70.59
68378;DHT22;55322;48.146;11.516;2023-02-28T16:38:47;1.73;70.56
68378;DHT22;55322;48.146;11.516;2023-02-28T16:41:16;1.74;69.66
68378;DHT22;55322;48.146;11.516;2023-02-28T16:43:45;1.71;69.84
68378;DHT22;55322;48.146;11.516;2023-02-28T16:46:12;1.73;68.83
68378;DHT22;55322;48.146;11.516;2023-02-28T16:48:38;1.70;69.25
68378;DHT22;55322;48.146;11.516;2023-02-28T16:51:04;1.71;69.94
68378;DHT22;55322;48.146;11.516;2023-02-28T16:53:30;1.77;69.00
68378;DHT22;55322;48.146;11.516;2023-02-28T16:55:55;1.68;69.79
68378;DHT22;55322;48.146;11.516;2023-02-28T16:58:21;1.75;68.96
68378;DHT22;55322;48.146;11.516;2023-02-28T17:00:48;1.73;69.78
68378;DHT22;55322;48.146;11.516;2023-02-28T17:03:27;1.71;70.10
68378;DHT22;55322;48.146;11.516;2023-02-28T17:05:53;1.70;70.08
68378;DHT22;55322;48.146;11.516;2023-02-28T17:08:18;1.57;70.38
68378;DHT22;55322;48.146;11.516;2023-02-28T17:10:43;1.50;71.02
68378;DHT22;55322;48.146;11.516;2023-02-28T17:13:09;1.47;71.49
68378;DHT22;55322;48.146;11.516;2023-02-28T17:15:35;1.56;70.14
68378;DHT22;55322;48.146;11.516;2023-02-28T17:18:01;1.57;69.81
68378;DHT22;55322;48.146;11.516;2023-02-28T17:20:26;1.38;71.69
68378;DHT22;55322;48.146;11.516;2023-02-28T17:22:53;1.43;70.89
68378;DHT22;55322;48.146;11.516;2023-02-28T17:25:19;1.56;71.33
68378;DHT22;55322;48.146;11.516;2023-02-28T17:27:45;1.43;73.09
68378;DHT22;55322;48.146;11.516;2023-02-28T17:30:17;1.32;73.16
68378;DHT22;55322;48.146;11.516;2023-02-28T17:32:43;1.32;72.22
68378;DHT22;55322;48.146;11.516;2023-02-28T17:35:08;1.25;74.33
68378;DHT22;55322;48.146;11.516;2023-02-28T17:37:34;1.28;72.16
68378;DHT22;55322;48.146;11.516;2023-02-28T17:40:00;1.35;71.95
68378;DHT22;55322;48.146;11.516;2023-02-28T17:42:25;1.40;71.85
68378;DHT22;55322;48.146;11.516;2023-02-28T17:44:50;1.52;71.33
68378;DHT22;55322;48.146;11.516;2023-02-28T17:47:16;1.53;71.60
68378;DHT22;55322;48.146;11.516;2023-02-28T17:49:41;1.50;71.66
68378;DHT22;55322;48.146;11.516;2023-02-28T17:52:07;1.44;72.33
68378;DHT22;55322;48.146;11.516;2023-02-28T17:54:32;1.50;71.92
68378;DHT22;55322;48.146;11.516;2023-02-28T17:56:58;1.42;72.95
68378;DHT22;55322;48.146;11.516;2023-02-28T17:59:23;1.42;72.24
68378;DHT22;55322;48.146;11.516;2023-02-28T18:01:48;1.35;72.89
68378;DHT22;55322;48.146;11.516;2023-02-28T18:04:14;1.52;71.82
68378;DHT22;55322;48.146;11.516;2023-02-28T18:06:41;1.52;72.45
68378;DHT22;55322;48.146;11.516;2023-02-28T18:09:17;1.52;72.28
68378;DHT22;55322;48.146;11.516;2023-02-28T18:11:43;1.59;71.71